ハルビン の空港の天気 - METARとTAF

ハルビン太平国際空港 ( ZYHB / HRB ) - 中国 黒竜江省ハルビン市
飛行場実況気象(Metar)
観測時間10/23 21:00 CST (10/23 13:00 UTC)
風向・風速南 2m/s
視程10km以上
天気現象
なし
気温0℃
湿度43%
気圧1024hPa
METARZYHB 231300Z 19002MPS CAVOK M00/M11 Q1024 NOSIG
過去の天気等 Google飛行場航空写真 Wunderground天気予報

過去48時間のMETAR

飛行場予報(TAF)
発表時間: 10/23 17:06 CST (10/23 09:06 UTC)
予報対象時間: 23日20時 CST ~ 24日20時 CST
風向・風速西 3m/s
視程5,000m
天気現象
なし
TAF ZYHB 230906Z 2312/2412 27003MPS 5000 FU NSC TX13/2406Z TNM03/22Z